sensor_id;sensor_type;location;lat;lon;timestamp;P1;durP1;ratioP1;P2;durP2;ratioP2
70899;SDS011;67902;52.154;5.430;2024-03-23T00:54:23;23.33;;;6.05;;
70899;SDS011;67902;52.154;5.430;2024-03-23T00:56:48;22.45;;;5.75;;
70899;SDS011;67902;52.154;5.430;2024-03-23T00:59:14;24.83;;;6.80;;
70899;SDS011;67902;52.154;5.430;2024-03-23T01:01:39;26.90;;;6.45;;
70899;SDS011;67902;52.154;5.430;2024-03-23T01:04:05;17.17;;;6.00;;
70899;SDS011;67902;52.154;5.430;2024-03-23T01:06:30;19.70;;;5.85;;
70899;SDS011;67902;52.154;5.430;2024-03-23T01:08:56;20.02;;;6.28;;
70899;SDS011;67902;52.154;5.430;2024-03-23T01:11:22;20.85;;;6.15;;
70899;SDS011;67902;52.154;5.430;2024-03-23T01:13:47;16.10;;;5.72;;
70899;SDS011;67902;52.154;5.430;2024-03-23T01:16:13;22.52;;;6.07;;
70899;SDS011;67902;52.154;5.430;2024-03-23T01:18:38;23.63;;;6.13;;
70899;SDS011;67902;52.154;5.430;2024-03-23T01:21:04;27.80;;;6.22;;
70899;SDS011;67902;52.154;5.430;2024-03-23T01:23:29;16.58;;;5.63;;
70899;SDS011;67902;52.154;5.430;2024-03-23T01:25:55;19.35;;;5.90;;
70899;SDS011;67902;52.154;5.430;2024-03-23T01:28:21;23.00;;;5.90;;
70899;SDS011;67902;52.154;5.430;2024-03-23T01:30:47;24.08;;;6.10;;
70899;SDS011;67902;52.154;5.430;2024-03-23T01:33:13;17.95;;;5.97;;
70899;SDS011;67902;52.154;5.430;2024-03-23T01:35:38;27.70;;;6.40;;
70899;SDS011;67902;52.154;5.430;2024-03-23T01:38:04;15.82;;;6.40;;
70899;SDS011;67902;52.154;5.430;2024-03-23T01:40:30;21.70;;;5.88;;
70899;SDS011;67902;52.154;5.430;2024-03-23T01:42:59;28.88;;;7.15;;
70899;SDS011;67902;52.154;5.430;2024-03-23T01:45:29;21.90;;;6.30;;
70899;SDS011;67902;52.154;5.430;2024-03-23T01:47:55;17.25;;;6.75;;
70899;SDS011;67902;52.154;5.430;2024-03-23T01:50:21;19.90;;;5.30;;
70899;SDS011;67902;52.154;5.430;2024-03-23T01:55:14;16.95;;;5.50;;
70899;SDS011;67902;52.154;5.430;2024-03-23T01:57:40;21.70;;;6.38;;
70899;SDS011;67902;52.154;5.430;2024-03-23T02:00:06;21.98;;;5.85;;
70899;SDS011;67902;52.154;5.430;2024-03-23T02:02:32;19.17;;;5.75;;
70899;SDS011;67902;52.154;5.430;2024-03-23T02:04:57;22.23;;;6.28;;
70899;SDS011;67902;52.154;5.430;2024-03-23T02:07:23;19.50;;;6.43;;
70899;SDS011;67902;52.154;5.430;2024-03-23T02:09:50;19.05;;;5.75;;
70899;SDS011;67902;52.154;5.430;2024-03-23T02:12:17;24.33;;;5.45;;
70899;SDS011;67902;52.154;5.430;2024-03-23T02:14:43;22.10;;;6.22;;
70899;SDS011;67902;52.154;5.430;2024-03-23T02:17:08;25.60;;;5.57;;
70899;SDS011;67902;52.154;5.430;2024-03-23T02:19:34;16.15;;;5.50;;
70899;SDS011;67902;52.154;5.430;2024-03-23T02:22:00;24.75;;;6.18;;
70899;SDS011;67902;52.154;5.430;2024-03-23T02:24:25;22.13;;;5.70;;
70899;SDS011;67902;52.154;5.430;2024-03-23T02:26:51;21.02;;;5.55;;
70899;SDS011;67902;52.154;5.430;2024-03-23T02:29:16;19.38;;;5.47;;
70899;SDS011;67902;52.154;5.430;2024-03-23T02:31:42;18.60;;;6.03;;
70899;SDS011;67902;52.154;5.430;2024-03-23T02:34:07;15.27;;;5.28;;
70899;SDS011;67902;52.154;5.430;2024-03-23T02:36:33;18.55;;;5.47;;
70899;SDS011;67902;52.154;5.430;2024-03-23T02:38:59;20.23;;;5.47;;
70899;SDS011;67902;52.154;5.430;2024-03-23T02:41:24;15.85;;;4.43;;
70899;SDS011;67902;52.154;5.430;2024-03-23T02:43:50;23.50;;;4.70;;
70899;SDS011;67902;52.154;5.430;2024-03-23T02:46:15;26.40;;;4.55;;
70899;SDS011;67902;52.154;5.430;2024-03-23T02:48:41;23.13;;;4.53;;
70899;SDS011;67902;52.154;5.430;2024-03-23T02:51:07;17.65;;;4.05;;
70899;SDS011;67902;52.154;5.430;2024-03-23T02:53:32;18.02;;;4.00;;
70899;SDS011;67902;52.154;5.430;2024-03-23T02:55:58;20.63;;;4.88;;
70899;SDS011;67902;52.154;5.430;2024-03-23T02:58:24;16.73;;;3.90;;
70899;SDS011;67902;52.154;5.430;2024-03-23T03:00:49;14.32;;;3.22;;
70899;SDS011;67902;52.154;5.430;2024-03-23T03:03:15;10.35;;;2.92;;
70899;SDS011;67902;52.154;5.430;2024-03-23T03:05:41;14.18;;;3.30;;
70899;SDS011;67902;52.154;5.430;2024-03-23T03:08:06;14.75;;;3.38;;
70899;SDS011;67902;52.154;5.430;2024-03-23T03:10:32;17.42;;;3.42;;
70899;SDS011;67902;52.154;5.430;2024-03-23T03:13:00;13.40;;;3.53;;
70899;SDS011;67902;52.154;5.430;2024-03-23T03:15:26;19.13;;;3.50;;
70899;SDS011;67902;52.154;5.430;2024-03-23T03:17:51;15.50;;;3.58;;
70899;SDS011;67902;52.154;5.430;2024-03-23T03:20:17;16.08;;;3.70;;
70899;SDS011;67902;52.154;5.430;2024-03-23T03:22:43;17.48;;;2.90;;
70899;SDS011;67902;52.154;5.430;2024-03-23T03:25:09;13.40;;;2.70;;
70899;SDS011;67902;52.154;5.430;2024-03-23T03:27:34;14.68;;;3.67;;
70899;SDS011;67902;52.154;5.430;2024-03-23T03:30:00;16.00;;;2.60;;
70899;SDS011;67902;52.154;5.430;2024-03-23T03:32:30;14.50;;;2.60;;
70899;SDS011;67902;52.154;5.430;2024-03-23T03:34:56;15.50;;;3.10;;
70899;SDS011;67902;52.154;5.430;2024-03-23T03:37:21;15.77;;;2.97;;
70899;SDS011;67902;52.154;5.430;2024-03-23T03:39:47;14.65;;;2.85;;
70899;SDS011;67902;52.154;5.430;2024-03-23T03:42:12;12.05;;;3.00;;
70899;SDS011;67902;52.154;5.430;2024-03-23T03:44:38;22.75;;;2.67;;
70899;SDS011;67902;52.154;5.430;2024-03-23T03:47:05;19.40;;;3.72;;
70899;SDS011;67902;52.154;5.430;2024-03-23T03:49:31;8.73;;;2.65;;
70899;SDS011;67902;52.154;5.430;2024-03-23T03:51:56;13.80;;;3.28;;
70899;SDS011;67902;52.154;5.430;2024-03-23T03:54:22;15.10;;;3.38;;
70899;SDS011;67902;52.154;5.430;2024-03-23T03:56:47;9.75;;;3.03;;
70899;SDS011;67902;52.154;5.430;2024-03-23T03:59:13;14.38;;;3.42;;
70899;SDS011;67902;52.154;5.430;2024-03-23T04:01:39;13.07;;;2.95;;
70899;SDS011;67902;52.154;5.430;2024-03-23T04:04:05;16.95;;;3.53;;
70899;SDS011;67902;52.154;5.430;2024-03-23T04:06:30;12.48;;;3.40;;
70899;SDS011;67902;52.154;5.430;2024-03-23T04:08:56;13.75;;;3.00;;
70899;SDS011;67902;52.154;5.430;2024-03-23T04:11:21;15.13;;;2.90;;
70899;SDS011;67902;52.154;5.430;2024-03-23T04:13:47;17.98;;;3.53;;
70899;SDS011;67902;52.154;5.430;2024-03-23T04:16:13;12.68;;;2.95;;
70899;SDS011;67902;52.154;5.430;2024-03-23T04:18:49;14.82;;;3.42;;
70899;SDS011;67902;52.154;5.430;2024-03-23T04:21:14;7.30;;;2.45;;
70899;SDS011;67902;52.154;5.430;2024-03-23T04:23:40;18.90;;;3.72;;
70899;SDS011;67902;52.154;5.430;2024-03-23T04:26:05;9.63;;;3.15;;
70899;SDS011;67902;52.154;5.430;2024-03-23T04:28:31;11.57;;;3.38;;
70899;SDS011;67902;52.154;5.430;2024-03-23T04:30:56;12.80;;;3.22;;
70899;SDS011;67902;52.154;5.430;2024-03-23T04:33:22;16.58;;;3.58;;
70899;SDS011;67902;52.154;5.430;2024-03-23T04:35:49;12.68;;;3.30;;
70899;SDS011;67902;52.154;5.430;2024-03-23T04:38:14;14.82;;;3.70;;
70899;SDS011;67902;52.154;5.430;2024-03-23T04:40:41;16.40;;;4.15;;
70899;SDS011;67902;52.154;5.430;2024-03-23T04:43:07;19.27;;;3.75;;
70899;SDS011;67902;52.154;5.430;2024-03-23T04:45:32;18.02;;;4.43;;
70899;SDS011;67902;52.154;5.430;2024-03-23T04:47:58;11.40;;;3.97;;
70899;SDS011;67902;52.154;5.430;2024-03-23T04:50:23;10.80;;;3.85;;
70899;SDS011;67902;52.154;5.430;2024-03-23T04:52:49;15.40;;;4.63;;
70899;SDS011;67902;52.154;5.430;2024-03-23T04:55:14;15.20;;;3.85;;
70899;SDS011;67902;52.154;5.430;2024-03-23T04:57:40;14.25;;;3.65;;
70899;SDS011;67902;52.154;5.430;2024-03-23T05:00:06;17.50;;;3.85;;
70899;SDS011;67902;52.154;5.430;2024-03-23T05:02:42;12.98;;;3.22;;
70899;SDS011;67902;52.154;5.430;2024-03-23T05:05:09;15.00;;;3.55;;
70899;SDS011;67902;52.154;5.430;2024-03-23T05:07:34;17.20;;;3.65;;
70899;SDS011;67902;52.154;5.430;2024-03-23T05:10:00;13.73;;;3.53;;
70899;SDS011;67902;52.154;5.430;2024-03-23T05:12:25;11.85;;;3.25;;
70899;SDS011;67902;52.154;5.430;2024-03-23T05:14:51;13.48;;;3.70;;
70899;SDS011;67902;52.154;5.430;2024-03-23T05:17:17;10.07;;;3.08;;
70899;SDS011;67902;52.154;5.430;2024-03-23T05:19:42;14.63;;;3.10;;
70899;SDS011;67902;52.154;5.430;2024-03-23T05:22:09;17.02;;;3.75;;
70899;SDS011;67902;52.154;5.430;2024-03-23T05:24:35;8.68;;;2.55;;
70899;SDS011;67902;52.154;5.430;2024-03-23T05:27:00;12.65;;;3.15;;
70899;SDS011;67902;52.154;5.430;2024-03-23T05:29:26;11.85;;;2.92;;
70899;SDS011;67902;52.154;5.430;2024-03-23T05:31:52;11.07;;;2.83;;
70899;SDS011;67902;52.154;5.430;2024-03-23T05:34:17;10.73;;;2.22;;
70899;SDS011;67902;52.154;5.430;2024-03-23T05:36:43;11.30;;;2.70;;
70899;SDS011;67902;52.154;5.430;2024-03-23T05:39:09;9.35;;;1.88;;
70899;SDS011;67902;52.154;5.430;2024-03-23T05:41:34;11.77;;;3.22;;
70899;SDS011;67902;52.154;5.430;2024-03-23T05:44:02;11.23;;;2.08;;
70899;SDS011;67902;52.154;5.430;2024-03-23T05:46:27;12.05;;;2.05;;
70899;SDS011;67902;52.154;5.430;2024-03-23T05:48:53;13.20;;;2.40;;
70899;SDS011;67902;52.154;5.430;2024-03-23T05:51:19;11.07;;;2.50;;
70899;SDS011;67902;52.154;5.430;2024-03-23T05:53:44;10.75;;;2.63;;
70899;SDS011;67902;52.154;5.430;2024-03-23T05:56:10;14.32;;;2.35;;
70899;SDS011;67902;52.154;5.430;2024-03-23T05:58:35;5.97;;;2.08;;
70899;SDS011;67902;52.154;5.430;2024-03-23T06:01:01;8.02;;;1.92;;
70899;SDS011;67902;52.154;5.430;2024-03-23T06:03:27;8.82;;;2.83;;
70899;SDS011;67902;52.154;5.430;2024-03-23T06:05:54;8.07;;;1.95;;
70899;SDS011;67902;52.154;5.430;2024-03-23T06:08:20;12.23;;;2.55;;
70899;SDS011;67902;52.154;5.430;2024-03-23T06:10:46;10.32;;;2.45;;
70899;SDS011;67902;52.154;5.430;2024-03-23T06:13:12;17.25;;;2.17;;
70899;SDS011;67902;52.154;5.430;2024-03-23T06:15:38;9.07;;;2.30;;
70899;SDS011;67902;52.154;5.430;2024-03-23T06:18:04;10.70;;;2.15;;
70899;SDS011;67902;52.154;5.430;2024-03-23T06:20:30;14.05;;;2.70;;
70899;SDS011;67902;52.154;5.430;2024-03-23T06:22:56;10.93;;;2.10;;
70899;SDS011;67902;52.154;5.430;2024-03-23T06:25:22;12.48;;;2.05;;
70899;SDS011;67902;52.154;5.430;2024-03-23T06:27:48;8.25;;;2.13;;
70899;SDS011;67902;52.154;5.430;2024-03-23T06:30:13;13.50;;;2.47;;
70899;SDS011;67902;52.154;5.430;2024-03-23T06:32:39;14.00;;;2.05;;
70899;SDS011;67902;52.154;5.430;2024-03-23T06:35:04;13.35;;;1.95;;
70899;SDS011;67902;52.154;5.430;2024-03-23T06:37:36;7.57;;;2.10;;
70899;SDS011;67902;52.154;5.430;2024-03-23T06:40:01;7.78;;;1.70;;
70899;SDS011;67902;52.154;5.430;2024-03-23T06:42:27;9.05;;;2.03;;
70899;SDS011;67902;52.154;5.430;2024-03-23T06:44:53;14.93;;;2.22;;
70899;SDS011;67902;52.154;5.430;2024-03-23T06:47:18;7.32;;;1.85;;
70899;SDS011;67902;52.154;5.430;2024-03-23T06:49:44;7.72;;;1.92;;
70899;SDS011;67902;52.154;5.430;2024-03-23T06:52:09;7.72;;;2.00;;
70899;SDS011;67902;52.154;5.430;2024-03-23T06:54:35;9.45;;;2.00;;
70899;SDS011;67902;52.154;5.430;2024-03-23T06:57:00;12.10;;;1.58;;
70899;SDS011;67902;52.154;5.430;2024-03-23T06:59:26;8.25;;;1.80;;
70899;SDS011;67902;52.154;5.430;2024-03-23T07:01:51;8.85;;;1.70;;
70899;SDS011;67902;52.154;5.430;2024-03-23T07:04:17;10.45;;;1.75;;
70899;SDS011;67902;52.154;5.430;2024-03-23T07:06:44;8.00;;;1.67;;
70899;SDS011;67902;52.154;5.430;2024-03-23T07:09:10;12.30;;;2.38;;
70899;SDS011;67902;52.154;5.430;2024-03-23T07:11:36;10.55;;;1.98;;
70899;SDS011;67902;52.154;5.430;2024-03-23T07:14:02;9.07;;;2.25;;
70899;SDS011;67902;52.154;5.430;2024-03-23T07:16:30;8.88;;;1.70;;
70899;SDS011;67902;52.154;5.430;2024-03-23T07:18:56;10.35;;;2.30;;
70899;SDS011;67902;52.154;5.430;2024-03-23T07:21:22;10.50;;;1.88;;
70899;SDS011;67902;52.154;5.430;2024-03-23T07:23:47;9.48;;;2.20;;
70899;SDS011;67902;52.154;5.430;2024-03-23T07:26:13;11.10;;;2.20;;
70899;SDS011;67902;52.154;5.430;2024-03-23T07:28:38;9.32;;;2.17;;
70899;SDS011;67902;52.154;5.430;2024-03-23T07:31:09;13.95;;;2.30;;
70899;SDS011;67902;52.154;5.430;2024-03-23T07:33:46;9.40;;;2.55;;
70899;SDS011;67902;52.154;5.430;2024-03-23T07:36:12;13.23;;;2.72;;
70899;SDS011;67902;52.154;5.430;2024-03-23T07:38:41;9.73;;;2.28;;
70899;SDS011;67902;52.154;5.430;2024-03-23T07:41:08;13.63;;;2.40;;
70899;SDS011;67902;52.154;5.430;2024-03-23T07:43:36;11.20;;;2.05;;
70899;SDS011;67902;52.154;5.430;2024-03-23T07:46:02;14.48;;;2.38;;
70899;SDS011;67902;52.154;5.430;2024-03-23T07:48:32;9.82;;;1.90;;
70899;SDS011;67902;52.154;5.430;2024-03-23T07:50:58;7.22;;;1.92;;
70899;SDS011;67902;52.154;5.430;2024-03-23T07:53:32;6.97;;;1.85;;
70899;SDS011;67902;52.154;5.430;2024-03-23T07:55:59;10.68;;;1.98;;
70899;SDS011;67902;52.154;5.430;2024-03-23T07:58:27;8.07;;;2.38;;
70899;SDS011;67902;52.154;5.430;2024-03-23T08:00:53;9.20;;;2.35;;
70899;SDS011;67902;52.154;5.430;2024-03-23T08:03:20;7.18;;;1.85;;
70899;SDS011;67902;52.154;5.430;2024-03-23T08:05:46;10.27;;;2.03;;
70899;SDS011;67902;52.154;5.430;2024-03-23T08:08:12;8.52;;;1.58;;
70899;SDS011;67902;52.154;5.430;2024-03-23T08:10:46;9.43;;;1.88;;
70899;SDS011;67902;52.154;5.430;2024-03-23T08:13:12;8.13;;;1.70;;
70899;SDS011;67902;52.154;5.430;2024-03-23T08:15:38;10.18;;;1.90;;
70899;SDS011;67902;52.154;5.430;2024-03-23T08:18:03;8.70;;;1.85;;
70899;SDS011;67902;52.154;5.430;2024-03-23T08:20:29;9.30;;;1.50;;
70899;SDS011;67902;52.154;5.430;2024-03-23T08:22:55;9.70;;;1.65;;
70899;SDS011;67902;52.154;5.430;2024-03-23T08:25:21;9.05;;;1.90;;
70899;SDS011;67902;52.154;5.430;2024-03-23T08:27:46;10.32;;;2.13;;
70899;SDS011;67902;52.154;5.430;2024-03-23T08:30:12;7.88;;;1.83;;
70899;SDS011;67902;52.154;5.430;2024-03-23T08:32:38;8.63;;;2.45;;
70899;SDS011;67902;52.154;5.430;2024-03-23T08:35:03;7.47;;;1.48;;
70899;SDS011;67902;52.154;5.430;2024-03-23T08:37:29;14.25;;;2.13;;
70899;SDS011;67902;52.154;5.430;2024-03-23T08:39:55;8.35;;;1.65;;
70899;SDS011;67902;52.154;5.430;2024-03-23T08:42:20;8.98;;;1.65;;
70899;SDS011;67902;52.154;5.430;2024-03-23T08:44:46;11.48;;;1.65;;
70899;SDS011;67902;52.154;5.430;2024-03-23T08:47:15;11.38;;;1.90;;
70899;SDS011;67902;52.154;5.430;2024-03-23T08:49:41;8.45;;;1.90;;
70899;SDS011;67902;52.154;5.430;2024-03-23T08:52:07;7.90;;;1.60;;
70899;SDS011;67902;52.154;5.430;2024-03-23T08:54:33;10.85;;;1.70;;
70899;SDS011;67902;52.154;5.430;2024-03-23T08:56:59;6.95;;;1.38;;
70899;SDS011;67902;52.154;5.430;2024-03-23T08:59:25;10.30;;;1.95;;
70899;SDS011;67902;52.154;5.430;2024-03-23T09:01:51;10.90;;;1.95;;
70899;SDS011;67902;52.154;5.430;2024-03-23T09:04:16;5.78;;;1.30;;
70899;SDS011;67902;52.154;5.430;2024-03-23T09:06:42;6.80;;;1.27;;
70899;SDS011;67902;52.154;5.430;2024-03-23T09:09:08;5.07;;;1.38;;
70899;SDS011;67902;52.154;5.430;2024-03-23T09:11:34;6.63;;;1.13;;
70899;SDS011;67902;52.154;5.430;2024-03-23T09:13:59;7.85;;;1.42;;
70899;SDS011;67902;52.154;5.430;2024-03-23T09:16:25;4.38;;;0.82;;
70899;SDS011;67902;52.154;5.430;2024-03-23T09:18:51;2.25;;;0.60;;
70899;SDS011;67902;52.154;5.430;2024-03-23T09:21:17;5.30;;;1.02;;
70899;SDS011;67902;52.154;5.430;2024-03-23T09:23:43;6.70;;;0.95;;
70899;SDS011;67902;52.154;5.430;2024-03-23T09:26:09;5.18;;;1.23;;
70899;SDS011;67902;52.154;5.430;2024-03-23T09:28:35;7.03;;;1.20;;
70899;SDS011;67902;52.154;5.430;2024-03-23T09:31:04;6.82;;;1.27;;
70899;SDS011;67902;52.154;5.430;2024-03-23T09:33:30;7.88;;;1.58;;
70899;SDS011;67902;52.154;5.430;2024-03-23T09:35:55;5.47;;;1.02;;
70899;SDS011;67902;52.154;5.430;2024-03-23T09:38:22;6.60;;;1.38;;
70899;SDS011;67902;52.154;5.430;2024-03-23T09:40:52;5.35;;;1.23;;
70899;SDS011;67902;52.154;5.430;2024-03-23T09:43:18;10.52;;;1.73;;
70899;SDS011;67902;52.154;5.430;2024-03-23T09:45:44;8.35;;;1.33;;
70899;SDS011;67902;52.154;5.430;2024-03-23T09:48:10;9.98;;;1.77;;
70899;SDS011;67902;52.154;5.430;2024-03-23T09:50:39;5.57;;;1.20;;
70899;SDS011;67902;52.154;5.430;2024-03-23T09:53:09;6.43;;;1.20;;
70899;SDS011;67902;52.154;5.430;2024-03-23T09:55:39;6.95;;;1.50;;
70899;SDS011;67902;52.154;5.430;2024-03-23T09:58:06;5.75;;;1.10;;
70899;SDS011;67902;52.154;5.430;2024-03-23T10:00:35;5.13;;;1.25;;
70899;SDS011;67902;52.154;5.430;2024-03-23T10:03:01;8.50;;;1.50;;
70899;SDS011;67902;52.154;5.430;2024-03-23T10:05:27;9.63;;;1.52;;
70899;SDS011;67902;52.154;5.430;2024-03-23T10:07:54;9.65;;;1.95;;
70899;SDS011;67902;52.154;5.430;2024-03-23T10:10:20;10.90;;;1.73;;
70899;SDS011;67902;52.154;5.430;2024-03-23T10:12:49;10.23;;;1.58;;
70899;SDS011;67902;52.154;5.430;2024-03-23T10:15:22;5.72;;;1.42;;
70899;SDS011;67902;52.154;5.430;2024-03-23T10:17:49;6.32;;;1.17;;
70899;SDS011;67902;52.154;5.430;2024-03-23T10:20:21;6.53;;;1.52;;
70899;SDS011;67902;52.154;5.430;2024-03-23T10:22:48;11.43;;;1.98;;
70899;SDS011;67902;52.154;5.430;2024-03-23T10:25:17;7.78;;;1.85;;
70899;SDS011;67902;52.154;5.430;2024-03-23T10:27:58;10.00;;;1.58;;
70899;SDS011;67902;52.154;5.430;2024-03-23T10:30:24;7.53;;;1.48;;
70899;SDS011;67902;52.154;5.430;2024-03-23T10:33:06;10.85;;;2.25;;
70899;SDS011;67902;52.154;5.430;2024-03-23T10:35:39;7.47;;;1.40;;
70899;SDS011;67902;52.154;5.430;2024-03-23T10:38:05;7.57;;;1.58;;
70899;SDS011;67902;52.154;5.430;2024-03-23T10:40:35;6.03;;;1.20;;
70899;SDS011;67902;52.154;5.430;2024-03-23T10:43:02;5.80;;;1.38;;
70899;SDS011;67902;52.154;5.430;2024-03-23T10:45:29;14.00;;;1.85;;
70899;SDS011;67902;52.154;5.430;2024-03-23T10:47:55;6.85;;;1.48;;
70899;SDS011;67902;52.154;5.430;2024-03-23T10:50:21;7.70;;;1.50;;
70899;SDS011;67902;52.154;5.430;2024-03-23T10:52:48;11.77;;;1.67;;
70899;SDS011;67902;52.154;5.430;2024-03-23T10:55:16;10.77;;;2.13;;
70899;SDS011;67902;52.154;5.430;2024-03-23T10:57:50;7.80;;;1.60;;
70899;SDS011;67902;52.154;5.430;2024-03-23T11:00:19;8.55;;;1.73;;
70899;SDS011;67902;52.154;5.430;2024-03-23T11:02:47;6.63;;;0.90;;
70899;SDS011;67902;52.154;5.430;2024-03-23T11:07:52;8.38;;;1.40;;
70899;SDS011;67902;52.154;5.430;2024-03-23T11:10:28;5.65;;;1.02;;
70899;SDS011;67902;52.154;5.430;2024-03-23T11:12:56;5.03;;;1.20;;
70899;SDS011;67902;52.154;5.430;2024-03-23T11:15:22;7.28;;;1.30;;
70899;SDS011;67902;52.154;5.430;2024-03-23T11:18:06;8.13;;;1.40;;
70899;SDS011;67902;52.154;5.430;2024-03-23T11:20:37;6.03;;;1.48;;
70899;SDS011;67902;52.154;5.430;2024-03-23T11:23:03;8.23;;;1.45;;
70899;SDS011;67902;52.154;5.430;2024-03-23T11:25:29;10.10;;;1.30;;
70899;SDS011;67902;52.154;5.430;2024-03-23T11:28:10;8.48;;;1.40;;
70899;SDS011;67902;52.154;5.430;2024-03-23T11:30:36;9.50;;;1.73;;
70899;SDS011;67902;52.154;5.430;2024-03-23T11:33:05;11.02;;;1.35;;
70899;SDS011;67902;52.154;5.430;2024-03-23T11:35:32;7.78;;;1.17;;
70899;SDS011;67902;52.154;5.430;2024-03-23T11:40:31;9.90;;;1.63;;
70899;SDS011;67902;52.154;5.430;2024-03-23T11:42:59;10.00;;;1.50;;
70899;SDS011;67902;52.154;5.430;2024-03-23T11:45:25;9.43;;;1.33;;
70899;SDS011;67902;52.154;5.430;2024-03-23T11:50:33;12.18;;;1.65;;
70899;SDS011;67902;52.154;5.430;2024-03-23T11:53:06;8.95;;;1.30;;
70899;SDS011;67902;52.154;5.430;2024-03-23T11:55:44;11.18;;;1.73;;
70899;SDS011;67902;52.154;5.430;2024-03-23T11:58:21;8.85;;;1.67;;
70899;SDS011;67902;52.154;5.430;2024-03-23T12:00:51;6.97;;;1.58;;
70899;SDS011;67902;52.154;5.430;2024-03-23T12:03:18;13.95;;;1.92;;
70899;SDS011;67902;52.154;5.430;2024-03-23T12:05:50;8.80;;;1.77;;
70899;SDS011;67902;52.154;5.430;2024-03-23T12:08:19;7.18;;;1.50;;
70899;SDS011;67902;52.154;5.430;2024-03-23T12:10:50;6.75;;;1.90;;
70899;SDS011;67902;52.154;5.430;2024-03-23T12:15:47;8.80;;;1.60;;
70899;SDS011;67902;52.154;5.430;2024-03-23T12:18:15;9.55;;;1.52;;
70899;SDS011;67902;52.154;5.430;2024-03-23T12:20:41;7.53;;;1.15;;
70899;SDS011;67902;52.154;5.430;2024-03-23T12:23:08;8.10;;;1.50;;
70899;SDS011;67902;52.154;5.430;2024-03-23T12:25:35;6.18;;;1.20;;
70899;SDS011;67902;52.154;5.430;2024-03-23T12:28:01;9.73;;;1.63;;
70899;SDS011;67902;52.154;5.430;2024-03-23T12:30:27;9.20;;;1.35;;
70899;SDS011;67902;52.154;5.430;2024-03-23T12:32:53;13.80;;;1.58;;
70899;SDS011;67902;52.154;5.430;2024-03-23T12:35:18;6.68;;;1.33;;
70899;SDS011;67902;52.154;5.430;2024-03-23T12:37:44;9.88;;;1.35;;
70899;SDS011;67902;52.154;5.430;2024-03-23T12:40:09;12.52;;;1.92;;
70899;SDS011;67902;52.154;5.430;2024-03-23T12:42:35;9.05;;;1.33;;
70899;SDS011;67902;52.154;5.430;2024-03-23T12:45:01;7.78;;;1.42;;
70899;SDS011;67902;52.154;5.430;2024-03-23T12:47:26;7.93;;;1.23;;
70899;SDS011;67902;52.154;5.430;2024-03-23T12:49:52;5.78;;;1.20;;
70899;SDS011;67902;52.154;5.430;2024-03-23T12:52:17;6.88;;;1.75;;
70899;SDS011;67902;52.154;5.430;2024-03-23T12:54:43;7.07;;;1.65;;
70899;SDS011;67902;52.154;5.430;2024-03-23T12:57:08;6.60;;;1.50;;
70899;SDS011;67902;52.154;5.430;2024-03-23T12:59:34;8.52;;;1.35;;
70899;SDS011;67902;52.154;5.430;2024-03-23T13:02:00;12.90;;;1.38;;
70899;SDS011;67902;52.154;5.430;2024-03-23T13:04:26;8.80;;;1.55;;
70899;SDS011;67902;52.154;5.430;2024-03-23T13:06:51;9.27;;;1.48;;
70899;SDS011;67902;52.154;5.430;2024-03-23T13:09:17;6.25;;;1.30;;
70899;SDS011;67902;52.154;5.430;2024-03-23T13:11:42;8.15;;;1.27;;
70899;SDS011;67902;52.154;5.430;2024-03-23T13:14:08;8.10;;;1.10;;
70899;SDS011;67902;52.154;5.430;2024-03-23T13:16:34;13.45;;;1.65;;
70899;SDS011;67902;52.154;5.430;2024-03-23T13:18:59;9.65;;;1.67;;
70899;SDS011;67902;52.154;5.430;2024-03-23T13:21:26;5.28;;;1.20;;
70899;SDS011;67902;52.154;5.430;2024-03-23T13:23:52;6.95;;;1.40;;
70899;SDS011;67902;52.154;5.430;2024-03-23T13:26:17;5.00;;;1.20;;
70899;SDS011;67902;52.154;5.430;2024-03-23T13:28:43;9.55;;;1.63;;
70899;SDS011;67902;52.154;5.430;2024-03-23T13:31:09;5.47;;;1.30;;
70899;SDS011;67902;52.154;5.430;2024-03-23T13:33:35;6.57;;;1.08;;
70899;SDS011;67902;52.154;5.430;2024-03-23T13:36:01;0.52;;;0.15;;
70899;SDS011;67902;52.154;5.430;2024-03-23T13:38:28;1.50;;;0.40;;
70899;SDS011;67902;52.154;5.430;2024-03-23T13:40:57;3.17;;;0.50;;
70899;SDS011;67902;52.154;5.430;2024-03-23T13:43:25;5.60;;;0.90;;
70899;SDS011;67902;52.154;5.430;2024-03-23T13:45:55;5.00;;;0.50;;
70899;SDS011;67902;52.154;5.430;2024-03-23T13:48:22;3.55;;;0.93;;
70899;SDS011;67902;52.154;5.430;2024-03-23T13:51:02;5.03;;;1.15;;
70899;SDS011;67902;52.154;5.430;2024-03-23T13:53:29;5.55;;;0.93;;
70899;SDS011;67902;52.154;5.430;2024-03-23T13:55:55;6.15;;;1.02;;
70899;SDS011;67902;52.154;5.430;2024-03-23T13:58:20;7.60;;;1.05;;
70899;SDS011;67902;52.154;5.430;2024-03-23T14:00:47;4.40;;;1.02;;
70899;SDS011;67902;52.154;5.430;2024-03-23T14:03:13;7.82;;;1.40;;
70899;SDS011;67902;52.154;5.430;2024-03-23T14:05:39;6.43;;;1.33;;
70899;SDS011;67902;52.154;5.430;2024-03-23T14:08:06;7.57;;;0.98;;
70899;SDS011;67902;52.154;5.430;2024-03-23T14:10:35;10.32;;;1.35;;
70899;SDS011;67902;52.154;5.430;2024-03-23T14:13:01;12.38;;;1.70;;
70899;SDS011;67902;52.154;5.430;2024-03-23T14:15:28;12.18;;;1.45;;
70899;SDS011;67902;52.154;5.430;2024-03-23T14:17:55;6.60;;;1.40;;
70899;SDS011;67902;52.154;5.430;2024-03-23T14:20:21;9.68;;;1.50;;
70899;SDS011;67902;52.154;5.430;2024-03-23T14:22:48;7.93;;;1.55;;
70899;SDS011;67902;52.154;5.430;2024-03-23T14:25:13;9.10;;;1.55;;
70899;SDS011;67902;52.154;5.430;2024-03-23T14:27:39;6.30;;;1.30;;
70899;SDS011;67902;52.154;5.430;2024-03-23T14:30:05;6.40;;;1.30;;
70899;SDS011;67902;52.154;5.430;2024-03-23T14:32:31;5.05;;;1.17;;
70899;SDS011;67902;52.154;5.430;2024-03-23T14:35:05;6.22;;;1.40;;
70899;SDS011;67902;52.154;5.430;2024-03-23T14:37:38;7.75;;;1.42;;
70899;SDS011;67902;52.154;5.430;2024-03-23T14:40:05;7.00;;;1.45;;
70899;SDS011;67902;52.154;5.430;2024-03-23T14:42:31;5.93;;;1.40;;
70899;SDS011;67902;52.154;5.430;2024-03-23T14:44:58;10.00;;;1.80;;
70899;SDS011;67902;52.154;5.430;2024-03-23T14:47:23;6.78;;;1.45;;
70899;SDS011;67902;52.154;5.430;2024-03-23T14:49:49;6.80;;;1.27;;
70899;SDS011;67902;52.154;5.430;2024-03-23T14:52:18;6.63;;;1.20;;
70899;SDS011;67902;52.154;5.430;2024-03-23T14:54:45;6.75;;;1.17;;
70899;SDS011;67902;52.154;5.430;2024-03-23T14:57:11;6.45;;;1.20;;
70899;SDS011;67902;52.154;5.430;2024-03-23T14:59:37;4.82;;;1.08;;
70899;SDS011;67902;52.154;5.430;2024-03-23T15:02:06;6.30;;;1.40;;
70899;SDS011;67902;52.154;5.430;2024-03-23T15:04:32;13.20;;;3.88;;
70899;SDS011;67902;52.154;5.430;2024-03-23T15:06:57;41.28;;;18.25;;
70899;SDS011;67902;52.154;5.430;2024-03-23T15:09:23;10.10;;;2.17;;
70899;SDS011;67902;52.154;5.430;2024-03-23T15:11:48;6.50;;;1.95;;
70899;SDS011;67902;52.154;5.430;2024-03-23T15:14:14;4.82;;;1.15;;
70899;SDS011;67902;52.154;5.430;2024-03-23T15:16:39;8.15;;;1.70;;
70899;SDS011;67902;52.154;5.430;2024-03-23T15:19:07;8.50;;;4.05;;
70899;SDS011;67902;52.154;5.430;2024-03-23T15:21:34;16.23;;;8.90;;
70899;SDS011;67902;52.154;5.430;2024-03-23T15:23:59;7.05;;;1.30;;
70899;SDS011;67902;52.154;5.430;2024-03-23T15:26:25;5.35;;;1.73;;
70899;SDS011;67902;52.154;5.430;2024-03-23T15:28:51;12.65;;;3.83;;
70899;SDS011;67902;52.154;5.430;2024-03-23T15:31:22;11.80;;;5.60;;
70899;SDS011;67902;52.154;5.430;2024-03-23T15:33:48;7.40;;;2.08;;
70899;SDS011;67902;52.154;5.430;2024-03-23T15:36:14;5.50;;;1.25;;
70899;SDS011;67902;52.154;5.430;2024-03-23T15:38:39;5.82;;;1.88;;
70899;SDS011;67902;52.154;5.430;2024-03-23T15:41:05;7.07;;;1.52;;
70899;SDS011;67902;52.154;5.430;2024-03-23T15:43:31;11.20;;;2.00;;